Time;durP1;ratioP1;P1;durP2;ratioP2;P2;SDS_P1;SDS_P2;PMS_P1;PMS_P2;Temp;Humidity;BMP_temperature;BMP_pressure;BME280_temperature;BME280_humidity;BME280_pressure;Samples;Min_cycle;Max_cycle;Signal;HPM_P1;HPM_P2
2021/06/14 00:00:08;;;;;;;2.03;1.93;;;25.20;70.20;;;;;;4994328;28;20557;-91
2021/06/14 00:02:35;;;;;;;2.20;2.10;;;25.20;70.20;;;;;;4997902;28;20444;-96
2021/06/14 00:05:02;;;;;;;1.90;1.80;;;25.20;70.20;;;;;;4998106;28;20532;-96
2021/06/14 00:07:29;;;;;;;2.10;2.00;;;25.20;70.30;;;;;;4997916;28;20451;-95
2021/06/14 00:09:57;;;;;;;2.03;1.93;;;25.20;70.30;;;;;;4997777;28;21049;-91
2021/06/14 00:12:24;;;;;;;1.90;1.80;;;25.10;70.20;;;;;;4998299;28;20880;-92
2021/06/14 00:14:54;;;;;;;1.87;1.77;;;25.10;70.20;;;;;;4997667;28;20928;-96
2021/06/14 00:17:21;;;;;;;1.87;1.77;;;25.10;71.10;;;;;;4997804;28;20451;-96
2021/06/14 00:19:49;;;;;;;2.03;1.93;;;25.10;70.30;;;;;;4997944;28;20435;-96
2021/06/14 00:22:21;;;;;;;2.57;2.37;;;25.10;70.40;;;;;;4997568;28;20475;-92
2021/06/14 00:24:48;;;;;;;2.53;2.40;;;25.10;71.30;;;;;;4998358;28;20537;-96
2021/06/14 00:27:15;;;;;;;2.23;2.03;;;25.10;70.40;;;;;;4997860;28;20442;-91
2021/06/14 00:29:42;;;;;;;2.30;2.10;;;25.10;70.40;;;;;;4997385;28;20454;-92
2021/06/14 00:32:10;;;;;;;2.17;1.97;;;25.10;70.40;;;;;;4997776;28;20465;-92
2021/06/14 00:34:37;;;;;;;1.90;1.80;;;25.20;70.60;;;;;;4997704;28;20482;-96
2021/06/14 00:37:04;;;;;;;2.10;2.00;;;25.10;70.50;;;;;;4997391;28;20457;-91
2021/06/14 00:39:31;;;;;;;2.40;1.90;;;25.10;70.60;;;;;;4998326;28;20557;-96
2021/06/14 00:41:58;;;;;;;1.97;1.67;;;25.10;70.60;;;;;;5010630;28;20432;-92
2021/06/14 00:44:25;;;;;;;1.70;1.60;;;25.10;70.60;;;;;;5021624;28;20430;-92
2021/06/14 00:46:52;;;;;;;2.00;1.90;;;25.10;70.60;;;;;;5021423;28;20458;-90
2021/06/14 00:49:20;;;;;;;1.90;1.80;;;25.10;70.60;;;;;;5021106;28;20444;-92
2021/06/14 00:51:47;;;;;;;1.93;1.83;;;25.10;70.60;;;;;;5004563;28;20558;-91
2021/06/14 00:54:14;;;;;;;2.60;2.40;;;25.10;70.70;;;;;;5001405;28;20481;-92
2021/06/14 00:56:41;;;;;;;2.50;2.30;;;25.10;70.70;;;;;;4999714;28;20534;-92
2021/06/14 00:59:08;;;;;;;2.03;1.93;;;25.10;70.70;;;;;;4998417;28;20533;-96
2021/06/14 01:01:35;;;;;;;2.23;2.03;;;25.20;70.70;;;;;;4997954;28;20535;-92
2021/06/14 01:04:02;;;;;;;2.60;2.40;;;25.10;70.60;;;;;;4997259;28;20485;-92
2021/06/14 01:06:30;;;;;;;2.00;1.90;;;25.10;70.60;;;;;;4997352;28;20453;-95
2021/06/14 01:08:57;;;;;;;2.00;1.73;;;25.10;70.50;;;;;;4997039;28;20467;-96
2021/06/14 01:11:34;;;;;;;2.30;2.10;;;25.10;70.60;;;;;;4996881;28;20889;-96
2021/06/14 01:14:11;;;;;;;2.37;2.27;;;25.00;70.50;;;;;;4997202;28;20497;-91
2021/06/14 01:16:47;;;;;;;2.23;2.13;;;25.10;70.50;;;;;;4997213;28;21005;-92
2021/06/14 01:19:35;;;;;;;2.50;2.30;;;25.10;70.50;;;;;;4997059;28;20808;-92
2021/06/14 01:22:26;;;;;;;2.10;1.90;;;25.10;70.50;;;;;;4996922;28;20434;-93
2021/06/14 01:25:04;;;;;;;1.80;1.70;;;25.10;70.40;;;;;;4997070;28;20534;-94
2021/06/14 01:27:41;;;;;;;2.00;1.90;;;25.10;70.50;;;;;;4996583;28;20457;-92
2021/06/14 01:30:11;;;;;;;2.03;1.90;;;25.10;70.50;;;;;;4996498;28;20469;-95
2021/06/14 01:32:39;;;;;;;1.80;1.70;;;25.10;70.50;;;;;;4996407;28;20482;-92
2021/06/14 01:35:08;;;;;;;2.43;2.23;;;25.00;70.50;;;;;;4996911;28;20494;-96
2021/06/14 01:37:42;;;;;;;2.00;1.90;;;25.10;70.50;;;;;;4996461;28;20457;-95
2021/06/14 01:40:11;;;;;;;2.90;2.23;;;25.10;70.50;;;;;;4996282;28;20466;-95
2021/06/14 01:42:41;;;;;;;2.20;2.10;;;25.10;70.60;;;;;;4996515;28;20530;-94
2021/06/14 01:45:09;;;;;;;2.10;1.97;;;25.10;70.50;;;;;;4996435;28;20870;-95
2021/06/14 01:47:36;;;;;;;2.10;2.00;;;25.10;70.40;;;;;;4996205;28;20540;-92
2021/06/14 01:50:03;;;;;;;2.47;2.27;;;25.10;70.50;;;;;;4996373;28;20778;-95
2021/06/14 01:52:31;;;;;;;2.27;2.07;;;25.10;71.30;;;;;;4996117;28;20556;-93
2021/06/14 01:54:59;;;;;;;2.10;2.00;;;25.10;70.50;;;;;;4996075;28;20586;-96
2021/06/14 01:57:27;;;;;;;2.27;2.17;;;25.10;70.50;;;;;;4996136;28;20539;-95
2021/06/14 01:59:56;;;;;;;2.90;2.10;;;25.10;70.50;;;;;;4996052;28;20448;-95
2021/06/14 02:02:24;;;;;;;2.10;1.80;;;25.10;70.50;;;;;;4995951;28;20550;-92
2021/06/14 02:04:51;;;;;;;2.23;2.03;;;25.10;70.40;;;;;;4995742;28;20528;-92
2021/06/14 02:07:20;;;;;;;1.87;1.77;;;25.00;70.40;;;;;;4996035;28;20474;-92
2021/06/14 02:09:47;;;;;;;1.90;1.80;;;25.00;70.40;;;;;;4996367;28;20872;-96
2021/06/14 02:12:14;;;;;;;1.77;1.67;;;25.00;70.40;;;;;;4996576;28;20503;-91
2021/06/14 02:14:43;;;;;;;2.60;2.40;;;25.00;70.40;;;;;;4996181;28;20531;-96
2021/06/14 02:17:15;;;;;;;1.70;1.60;;;25.00;70.40;;;;;;4996227;28;20947;-96
2021/06/14 02:19:43;;;;;;;3.40;2.40;;;25.10;70.50;;;;;;4996323;28;20451;-96
2021/06/14 02:22:12;;;;;;;1.83;1.73;;;25.00;70.40;;;;;;4997636;28;20454;-95
2021/06/14 02:24:39;;;;;;;2.07;1.87;;;25.00;70.40;;;;;;4995900;28;20526;-92
2021/06/14 02:27:07;;;;;;;2.00;1.87;;;25.00;70.40;;;;;;4996541;28;20793;-92
2021/06/14 02:29:34;;;;;;;1.60;1.50;;;25.10;70.40;;;;;;4995952;28;20447;-96
2021/06/14 02:32:01;;;;;;;1.67;1.57;;;25.10;70.40;;;;;;4996192;28;20809;-96
2021/06/14 02:34:31;;;;;;;1.80;1.70;;;25.00;70.30;;;;;;4995883;28;20646;-93
2021/06/14 02:36:59;;;;;;;2.20;2.07;;;25.10;70.40;;;;;;4978503;28;20446;-92
2021/06/14 02:39:29;;;;;;;2.47;2.30;;;25.00;70.40;;;;;;4978135;28;20463;-92
2021/06/14 02:41:57;;;;;;;2.20;2.00;;;25.00;71.10;;;;;;4995966;28;20446;-93
2021/06/14 02:44:26;;;;;;;1.67;1.57;;;25.00;70.20;;;;;;4995687;28;20541;-93
2021/06/14 02:46:56;;;;;;;2.03;1.93;;;25.00;70.30;;;;;;4995578;28;20483;-96
2021/06/14 02:49:25;;;;;;;2.03;1.93;;;25.00;70.30;;;;;;4996052;28;20873;-92
2021/06/14 02:51:56;;;;;;;2.20;2.00;;;25.00;71.10;;;;;;4995889;28;20523;-96
2021/06/14 02:54:31;;;;;;;1.93;1.83;;;25.00;70.30;;;;;;4995837;28;20450;-92
2021/06/14 02:57:02;;;;;;;1.80;1.67;;;25.00;70.30;;;;;;4995482;28;20436;-92
2021/06/14 02:59:32;;;;;;;2.40;2.20;;;25.00;70.20;;;;;;4995729;28;20455;-96
2021/06/14 03:02:00;;;;;;;2.07;1.97;;;25.00;70.30;;;;;;4995093;28;20961;-96
2021/06/14 03:04:28;;;;;;;2.77;2.57;;;25.00;70.30;;;;;;4995125;28;20455;-93
2021/06/14 03:06:56;;;;;;;2.13;1.97;;;25.00;70.30;;;;;;4995487;28;20446;-93
2021/06/14 03:09:24;;;;;;;2.00;1.90;;;25.00;70.30;;;;;;4995382;28;20467;-96
2021/06/14 03:11:52;;;;;;;1.87;1.77;;;25.00;70.40;;;;;;4995087;28;20482;-92
2021/06/14 03:14:21;;;;;;;2.27;2.07;;;25.00;70.30;;;;;;4995361;28;20786;-96
2021/06/14 03:16:48;;;;;;;1.83;1.73;;;25.00;70.30;;;;;;4995525;28;20537;-96
2021/06/14 03:19:20;;;;;;;2.47;2.27;;;25.00;70.30;;;;;;4996575;28;20445;-95
2021/06/14 03:21:47;;;;;;;2.23;2.03;;;25.00;70.40;;;;;;4995490;28;20437;-96
2021/06/14 03:24:17;;;;;;;1.93;1.83;;;25.00;70.30;;;;;;4998394;28;20457;-92
2021/06/14 03:26:46;;;;;;;2.13;2.03;;;25.00;70.30;;;;;;4995600;28;20522;-92
2021/06/14 03:29:17;;;;;;;2.00;1.80;;;25.00;70.30;;;;;;4978006;28;20810;-95
2021/06/14 03:31:47;;;;;;;1.60;1.50;;;25.00;70.30;;;;;;4995527;28;20444;-93
2021/06/14 03:34:15;;;;;;;2.23;2.13;;;25.00;70.30;;;;;;4994965;28;20506;-96
2021/06/14 03:36:43;;;;;;;2.60;2.40;;;25.00;70.30;;;;;;4998836;28;20486;-92
2021/06/14 03:39:10;;;;;;;1.90;1.80;;;25.00;70.20;;;;;;4999624;28;20850;-92
2021/06/14 03:41:43;;;;;;;2.23;2.00;;;25.00;70.40;;;;;;4999127;28;20479;-92
2021/06/14 03:44:10;;;;;;;2.30;2.10;;;25.00;70.30;;;;;;4999894;28;20904;-94
2021/06/14 03:46:37;;;;;;;2.20;2.10;;;25.00;70.30;;;;;;4999243;28;20489;-92
2021/06/14 03:49:05;;;;;;;2.10;1.90;;;25.00;70.20;;;;;;5001355;28;20540;-92
2021/06/14 03:51:33;;;;;;;2.00;1.90;;;25.00;70.20;;;;;;5002661;28;20923;-93
2021/06/14 03:54:00;;;;;;;1.93;1.83;;;25.00;70.20;;;;;;5002228;28;20446;-92
2021/06/14 03:56:29;;;;;;;1.70;1.60;;;25.00;70.20;;;;;;5004077;28;20490;-90
2021/06/14 03:58:57;;;;;;;1.63;1.53;;;25.00;70.20;;;;;;5009873;28;20450;-92
2021/06/14 04:01:26;;;;;;;2.00;1.90;;;25.00;70.20;;;;;;5005117;28;20470;-93
2021/06/14 04:04:07;;;;;;;2.07;1.97;;;25.00;70.20;;;;;;4998165;28;20443;-96
2021/06/14 04:06:34;;;;;;;1.87;1.77;;;25.00;70.20;;;;;;4998221;28;20473;-92
2021/06/14 04:09:01;;;;;;;2.10;2.00;;;25.00;70.20;;;;;;4998165;28;20987;-92
2021/06/14 04:11:29;;;;;;;2.13;2.03;;;25.00;70.20;;;;;;4997913;28;20478;-94
2021/06/14 04:13:57;;;;;;;1.90;1.80;;;25.00;70.20;;;;;;4998521;28;20865;-92
2021/06/14 04:16:24;;;;;;;1.77;1.67;;;25.00;70.30;;;;;;4997974;28;20816;-96
2021/06/14 04:18:51;;;;;;;2.20;2.00;;;25.00;70.40;;;;;;4998437;28;20528;-96
2021/06/14 04:21:18;;;;;;;2.53;2.00;;;25.00;70.30;;;;;;4998527;28;20922;-96
2021/06/14 04:23:46;;;;;;;2.03;1.93;;;25.00;70.20;;;;;;4998098;28;20458;-92
2021/06/14 04:26:13;;;;;;;2.47;2.27;;;24.90;70.20;;;;;;4998015;28;20533;-96
2021/06/14 04:28:41;;;;;;;2.17;2.07;;;24.90;70.20;;;;;;4997991;28;20477;-96
2021/06/14 04:31:09;;;;;;;2.57;2.00;;;24.90;70.30;;;;;;4997828;28;20510;-92
2021/06/14 04:33:36;;;;;;;2.13;2.03;;;24.90;70.30;;;;;;4997620;28;20534;-92
2021/06/14 04:36:04;;;;;;;2.40;2.20;;;25.00;70.40;;;;;;4997827;28;20522;-93
2021/06/14 04:38:31;;;;;;;1.90;1.80;;;24.90;70.30;;;;;;4997983;28;20833;-92
2021/06/14 04:40:58;;;;;;;2.13;1.70;;;24.90;70.30;;;;;;4998196;28;20471;-96
2021/06/14 04:43:25;;;;;;;1.60;1.50;;;24.90;70.40;;;;;;4997562;28;20520;-93
2021/06/14 04:45:52;;;;;;;1.87;1.77;;;25.00;70.40;;;;;;4997740;28;20841;-96
2021/06/14 04:48:20;;;;;;;2.27;2.07;;;25.00;70.40;;;;;;4997074;28;20446;-93
2021/06/14 04:50:49;;;;;;;2.63;2.20;;;24.90;70.40;;;;;;4997603;28;20528;-96
2021/06/14 04:53:16;;;;;;;2.10;1.90;;;24.90;70.40;;;;;;4997744;28;20488;-96
2021/06/14 04:55:43;;;;;;;2.13;1.93;;;24.90;70.50;;;;;;4997737;28;20474;-96
2021/06/14 04:58:10;;;;;;;2.60;2.40;;;24.90;70.50;;;;;;4997452;28;20450;-94
2021/06/14 05:00:37;;;;;;;1.80;1.70;;;24.90;70.50;;;;;;4997299;28;20458;-96
2021/06/14 05:03:04;;;;;;;1.87;1.77;;;24.90;70.50;;;;;;4997553;28;20927;-92
2021/06/14 05:05:34;;;;;;;1.80;1.70;;;24.90;70.50;;;;;;4997080;28;20474;-95
2021/06/14 05:08:01;;;;;;;2.00;1.87;;;24.90;70.50;;;;;;4997177;28;20453;-93
2021/06/14 05:10:28;;;;;;;2.17;2.07;;;24.90;70.60;;;;;;4997093;28;20472;-96
2021/06/14 05:12:55;;;;;;;2.30;2.10;;;24.90;70.60;;;;;;4997213;28;20458;-96
2021/06/14 05:15:22;;;;;;;2.13;2.00;;;24.90;70.60;;;;;;4997313;28;20457;-92
2021/06/14 05:17:49;;;;;;;1.97;1.80;;;24.90;70.70;;;;;;4997235;28;20474;-95
2021/06/14 05:20:19;;;;;;;2.17;2.07;;;24.90;70.70;;;;;;4998052;28;20459;-92
2021/06/14 05:22:48;;;;;;;2.50;2.30;;;24.90;70.70;;;;;;4997329;28;20538;-93
2021/06/14 05:25:15;;;;;;;2.50;2.30;;;24.90;70.70;;;;;;4997236;28;20448;-96
2021/06/14 05:27:42;;;;;;;2.30;2.10;;;24.90;70.70;;;;;;4997521;28;20457;-93
2021/06/14 05:30:10;;;;;;;2.40;2.20;;;24.90;70.70;;;;;;4996820;28;20973;-96
2021/06/14 05:32:38;;;;;;;1.90;1.80;;;24.90;71.50;;;;;;4996670;28;20483;-92
2021/06/14 05:35:06;;;;;;;2.47;2.27;;;24.90;70.70;;;;;;4996995;28;20809;-96
2021/06/14 05:37:33;;;;;;;2.20;2.00;;;24.90;70.70;;;;;;4996522;28;20828;-93
2021/06/14 05:40:02;;;;;;;2.37;2.23;;;24.90;70.70;;;;;;4996234;28;20989;-93
2021/06/14 05:42:29;;;;;;;1.97;1.87;;;24.90;70.70;;;;;;4996957;28;20477;-93
2021/06/14 05:44:56;;;;;;;2.33;2.13;;;24.90;70.70;;;;;;5004201;28;20505;-94
2021/06/14 05:47:23;;;;;;;2.77;2.57;;;24.90;70.70;;;;;;5020376;28;20453;-95
2021/06/14 05:49:51;;;;;;;2.27;2.17;;;24.90;70.80;;;;;;5020243;28;20493;-92
2021/06/14 05:52:18;;;;;;;2.53;2.33;;;24.90;70.80;;;;;;5020434;28;20505;-94
2021/06/14 05:54:45;;;;;;;2.13;2.00;;;24.90;70.90;;;;;;5005831;28;20460;-93
2021/06/14 05:57:14;;;;;;;2.13;1.93;;;24.90;70.90;;;;;;5002543;28;21052;-93
2021/06/14 05:59:41;;;;;;;1.80;1.60;;;24.90;70.90;;;;;;5000904;28;20450;-93
2021/06/14 06:02:09;;;;;;;2.30;2.20;;;24.90;70.90;;;;;;4998522;28;20958;-93
2021/06/14 06:04:36;;;;;;;2.00;1.90;;;24.90;70.90;;;;;;4998017;28;20853;-93
2021/06/14 06:07:03;;;;;;;2.37;2.17;;;24.90;70.90;;;;;;4997426;28;20438;-96
2021/06/14 06:09:30;;;;;;;1.70;1.60;;;24.90;70.90;;;;;;4997198;28;21049;-96
2021/06/14 06:11:57;;;;;;;1.70;1.60;;;24.90;70.90;;;;;;4996275;28;20478;-93
2021/06/14 06:14:25;;;;;;;1.70;1.60;;;24.90;70.80;;;;;;4995851;28;20552;-96
2021/06/14 06:16:53;;;;;;;1.90;1.80;;;24.90;70.70;;;;;;4996411;28;20584;-93
2021/06/14 06:19:20;;;;;;;1.80;1.70;;;24.90;70.60;;;;;;4996635;28;20538;-94
2021/06/14 06:21:47;;;;;;;2.00;1.90;;;24.90;70.60;;;;;;4996735;28;20516;-93
2021/06/14 06:24:14;;;;;;;2.00;1.87;;;24.90;70.70;;;;;;4996859;28;20546;-94
2021/06/14 06:26:41;;;;;;;1.80;1.70;;;24.90;70.60;;;;;;4996757;28;20543;-96
2021/06/14 06:29:08;;;;;;;1.70;1.60;;;24.90;70.50;;;;;;4996023;28;20479;-96
2021/06/14 06:31:36;;;;;;;1.87;1.77;;;24.90;70.40;;;;;;4996316;28;20482;-93
2021/06/14 06:34:03;;;;;;;1.77;1.40;;;24.90;70.40;;;;;;4996185;28;20922;-96
2021/06/14 06:36:30;;;;;;;1.67;1.57;;;24.90;70.40;;;;;;4996120;28;20555;-96
2021/06/14 06:38:57;;;;;;;2.03;1.83;;;24.90;70.40;;;;;;4997106;28;21023;-96
2021/06/14 06:41:24;;;;;;;2.20;2.10;;;24.90;70.40;;;;;;5000901;28;20505;-93
2021/06/14 06:43:51;;;;;;;2.03;1.77;;;24.90;70.40;;;;;;4997057;28;20442;-96
2021/06/14 06:46:17;;;;;;;1.47;1.37;;;24.90;70.30;;;;;;4997451;28;20482;-93
2021/06/14 06:49:15;;;;;;;1.80;1.70;;;24.90;70.30;;;;;;4998222;28;20533;-94
2021/06/14 06:51:44;;;;;;;2.03;1.80;;;25.00;70.40;;;;;;5001610;28;20449;-92
2021/06/14 06:54:12;;;;;;;2.13;2.03;;;24.90;70.50;;;;;;5000753;28;20952;-94
2021/06/14 06:56:41;;;;;;;1.60;1.50;;;24.90;70.40;;;;;;5001211;28;20465;-93
2021/06/14 06:59:08;;;;;;;2.10;1.97;;;24.90;70.40;;;;;;5009946;28;20445;-92
2021/06/14 07:01:35;;;;;;;1.50;1.40;;;24.90;70.40;;;;;;5007822;28;20549;-92
2021/06/14 07:04:02;;;;;;;2.00;1.80;;;24.90;70.40;;;;;;5000173;28;20538;-92
2021/06/14 07:06:36;;;;;;;2.00;1.90;;;24.90;70.40;;;;;;4995372;28;20470;-96
2021/06/14 07:09:05;;;;;;;1.57;1.47;;;24.90;70.40;;;;;;4995329;28;20563;-93
2021/06/14 07:11:33;;;;;;;2.83;2.00;;;24.90;70.30;;;;;;4994997;28;20565;-96
2021/06/14 07:14:00;;;;;;;2.00;1.90;;;24.90;70.20;;;;;;4995397;28;20872;-96
2021/06/14 07:16:27;;;;;;;1.90;1.70;;;24.90;70.20;;;;;;4995192;28;20481;-96
2021/06/14 07:18:55;;;;;;;1.87;1.73;;;24.90;70.30;;;;;;4994732;28;20481;-93
2021/06/14 07:21:23;;;;;;;2.30;1.90;;;24.90;70.30;;;;;;4995379;28;20477;-96
2021/06/14 07:23:51;;;;;;;2.07;1.97;;;24.90;70.30;;;;;;4995050;28;20462;-94
2021/06/14 07:26:20;;;;;;;1.60;1.50;;;24.90;70.20;;;;;;4995166;28;20485;-93
2021/06/14 07:28:47;;;;;;;1.60;1.50;;;24.90;70.30;;;;;;4995670;28;20542;-93
2021/06/14 07:31:14;;;;;;;2.00;1.90;;;24.90;70.40;;;;;;4995853;28;20454;-93
2021/06/14 07:33:42;;;;;;;1.90;1.80;;;24.90;70.40;;;;;;4995781;28;20447;-96
2021/06/14 07:36:10;;;;;;;1.80;1.70;;;24.90;70.50;;;;;;4995099;28;20466;-93
2021/06/14 07:38:38;;;;;;;2.00;1.90;;;24.90;70.50;;;;;;4995722;28;20494;-93
2021/06/14 07:41:06;;;;;;;1.73;1.63;;;24.90;70.60;;;;;;4995292;28;20877;-96
2021/06/14 07:43:34;;;;;;;1.90;1.80;;;24.90;70.60;;;;;;4995669;28;20531;-94
2021/06/14 07:46:02;;;;;;;1.90;1.80;;;24.90;70.60;;;;;;4995339;28;20444;-93
2021/06/14 07:48:29;;;;;;;1.50;1.37;;;24.90;70.70;;;;;;4995180;28;20489;-93
2021/06/14 07:50:56;;;;;;;1.70;1.60;;;24.90;70.70;;;;;;4995310;28;20451;-92
2021/06/14 07:53:23;;;;;;;1.70;1.60;;;24.90;70.70;;;;;;4995054;28;20458;-93
2021/06/14 07:55:52;;;;;;;1.90;1.70;;;25.00;70.90;;;;;;4994798;28;20994;-96
2021/06/14 07:58:19;;;;;;;1.80;1.70;;;25.00;71.00;;;;;;4995338;28;20493;-93
2021/06/14 08:00:47;;;;;;;1.50;1.40;;;25.00;71.00;;;;;;4994974;28;20546;-93
2021/06/14 08:03:14;;;;;;;1.60;1.50;;;25.00;71.00;;;;;;4995155;28;20453;-93
2021/06/14 08:05:41;;;;;;;1.87;1.77;;;25.00;71.00;;;;;;4995396;28;20529;-93
2021/06/14 08:08:08;;;;;;;1.90;1.80;;;25.00;71.00;;;;;;4994916;28;20468;-95
2021/06/14 08:10:35;;;;;;;1.70;1.60;;;25.00;71.10;;;;;;4994815;28;20502;-94
2021/06/14 08:13:03;;;;;;;1.60;1.50;;;25.00;71.10;;;;;;4994499;28;20445;-93
2021/06/14 08:15:31;;;;;;;1.93;1.83;;;25.00;71.10;;;;;;4994879;28;20446;-93
2021/06/14 08:18:07;;;;;;;1.70;1.60;;;25.00;71.20;;;;;;4994630;28;20522;-93
2021/06/14 08:20:38;;;;;;;1.43;1.33;;;25.00;71.20;;;;;;4995528;28;20487;-93
2021/06/14 08:25:49;;;;;;;1.97;1.87;;;25.00;71.30;;;;;;5001042;28;20442;-92
2021/06/14 08:28:17;;;;;;;1.73;1.50;;;25.00;71.30;;;;;;4999766;28;20447;-93
2021/06/14 08:30:44;;;;;;;1.80;1.70;;;25.00;71.30;;;;;;4998238;28;20459;-96
2021/06/14 08:33:12;;;;;;;1.80;1.60;;;25.00;71.30;;;;;;4998324;28;20450;-93
2021/06/14 08:35:39;;;;;;;2.00;1.90;;;25.00;71.30;;;;;;4999212;28;20522;-93
2021/06/14 08:38:06;;;;;;;1.93;1.83;;;25.00;71.30;;;;;;4999194;28;20577;-93
2021/06/14 08:40:35;;;;;;;1.50;1.40;;;25.00;71.40;;;;;;4998718;28;20990;-93
2021/06/14 08:43:04;;;;;;;1.93;1.80;;;25.00;71.40;;;;;;4998686;28;20929;-96
2021/06/14 08:45:33;;;;;;;1.87;1.77;;;25.00;71.40;;;;;;4999814;28;20450;-93
2021/06/14 08:48:00;;;;;;;1.60;1.50;;;25.00;71.40;;;;;;4999698;28;20477;-93
2021/06/14 08:50:29;;;;;;;1.67;1.57;;;25.00;71.50;;;;;;4997920;28;20794;-95
2021/06/14 08:52:56;;;;;;;1.80;1.70;;;25.00;71.40;;;;;;4997807;28;20876;-96
2021/06/14 08:55:24;;;;;;;1.40;1.30;;;25.00;71.40;;;;;;4997997;28;20542;-93
2021/06/14 08:57:52;;;;;;;1.97;1.77;;;25.00;71.40;;;;;;4998753;28;20569;-96
2021/06/14 09:00:22;;;;;;;2.13;1.80;;;25.00;71.40;;;;;;4997699;28;20461;-93
2021/06/14 09:02:49;;;;;;;1.90;1.40;;;25.00;71.40;;;;;;4998642;28;20450;-96
2021/06/14 09:05:20;;;;;;;1.80;1.70;;;25.00;71.40;;;;;;4997966;28;20541;-96
2021/06/14 09:07:49;;;;;;;1.60;1.50;;;25.00;71.40;;;;;;4998352;28;20442;-93
2021/06/14 09:10:25;;;;;;;1.60;1.50;;;25.00;71.40;;;;;;4997990;28;20862;-93
2021/06/14 09:12:53;;;;;;;1.80;1.70;;;25.00;71.40;;;;;;4997173;28;20550;-93
2021/06/14 09:15:26;;;;;;;1.50;1.40;;;25.00;71.40;;;;;;4997601;28;20469;-93
2021/06/14 09:17:55;;;;;;;1.47;1.37;;;25.00;71.40;;;;;;4998630;28;20492;-96
2021/06/14 09:20:25;;;;;;;1.93;1.83;;;25.00;71.40;;;;;;4997060;28;20454;-94
2021/06/14 09:22:55;;;;;;;1.80;1.70;;;25.00;71.40;;;;;;4997426;28;21010;-93
2021/06/14 09:25:22;;;;;;;1.87;1.77;;;24.90;71.40;;;;;;4997734;28;20443;-93
2021/06/14 09:27:51;;;;;;;1.40;1.30;;;25.00;71.50;;;;;;4997289;28;20531;-93
2021/06/14 09:30:22;;;;;;;1.90;1.80;;;25.00;71.50;;;;;;4997324;28;20485;-93
2021/06/14 09:32:51;;;;;;;1.70;1.60;;;25.00;71.50;;;;;;4996632;28;20546;-93
2021/06/14 09:35:19;;;;;;;1.73;1.63;;;25.00;71.50;;;;;;4980339;28;20537;-96
2021/06/14 09:37:57;;;;;;;1.70;1.60;;;25.00;71.40;;;;;;4997176;28;20569;-93
2021/06/14 09:40:30;;;;;;;1.50;1.40;;;25.00;71.50;;;;;;4997172;28;20474;-96
2021/06/14 09:42:57;;;;;;;1.60;1.50;;;25.00;71.40;;;;;;4997359;28;20519;-95
2021/06/14 09:45:24;;;;;;;1.90;1.80;;;25.00;71.50;;;;;;4996979;28;20485;-93
2021/06/14 09:47:54;;;;;;;1.67;1.57;;;25.00;71.50;;;;;;4997081;28;20446;-96
2021/06/14 09:50:26;;;;;;;2.17;1.70;;;25.00;71.50;;;;;;4979793;28;20454;-93
2021/06/14 09:53:06;;;;;;;1.40;1.30;;;25.00;71.50;;;;;;4998016;28;20511;-93
2021/06/14 09:55:34;;;;;;;2.10;1.90;;;25.00;71.50;;;;;;4997149;28;20531;-96
2021/06/14 09:58:20;;;;;;;1.73;1.30;;;25.00;71.50;;;;;;4997841;28;20993;-93
2021/06/14 10:00:56;;;;;;;1.57;1.47;;;25.10;71.60;;;;;;4998169;28;20461;-93
2021/06/14 10:03:27;;;;;;;1.60;1.50;;;25.10;71.60;;;;;;4998413;28;20545;-93
2021/06/14 10:05:57;;;;;;;1.90;1.80;;;25.00;71.50;;;;;;4998644;28;20445;-94
2021/06/14 10:08:28;;;;;;;1.90;1.80;;;25.00;71.60;;;;;;4999118;28;20552;-93
2021/06/14 10:11:04;;;;;;;1.70;1.60;;;25.10;71.70;;;;;;4998459;28;21112;-91
2021/06/14 10:13:32;;;;;;;1.73;1.63;;;25.10;71.60;;;;;;5002770;28;20982;-93
2021/06/14 10:16:04;;;;;;;1.80;1.70;;;25.00;71.60;;;;;;5000285;28;20485;-96
2021/06/14 10:18:34;;;;;;;1.87;1.77;;;25.10;71.60;;;;;;4996646;28;20484;-96
2021/06/14 10:21:01;;;;;;;1.90;1.70;;;25.10;71.70;;;;;;4996124;28;20534;-94
2021/06/14 10:23:30;;;;;;;2.17;1.90;;;25.10;71.70;;;;;;4995881;28;20533;-93
2021/06/14 10:26:00;;;;;;;1.73;1.63;;;25.10;71.70;;;;;;4995752;28;20960;-96
2021/06/14 10:28:27;;;;;;;1.83;1.60;;;25.10;71.70;;;;;;4995685;28;20459;-93
2021/06/14 10:30:54;;;;;;;1.70;1.60;;;25.10;71.70;;;;;;4995928;28;20457;-93
2021/06/14 10:33:24;;;;;;;1.80;1.50;;;25.10;71.70;;;;;;4995883;28;20496;-93
2021/06/14 10:35:54;;;;;;;1.70;1.60;;;25.10;71.70;;;;;;4995600;28;20450;-93
2021/06/14 10:38:22;;;;;;;1.90;1.80;;;25.10;71.70;;;;;;4995979;28;20497;-96
2021/06/14 10:40:53;;;;;;;1.97;1.50;;;25.10;71.70;;;;;;4995071;28;20485;-94
2021/06/14 10:43:25;;;;;;;2.00;1.80;;;25.10;71.70;;;;;;4995808;28;20451;-92
2021/06/14 10:45:53;;;;;;;1.77;1.67;;;25.10;71.70;;;;;;4994732;28;20445;-96
2021/06/14 10:48:28;;;;;;;1.53;1.43;;;25.10;71.70;;;;;;5007326;28;20430;-93
2021/06/14 10:50:57;;;;;;;1.70;1.60;;;25.10;71.70;;;;;;5019261;28;20452;-92
2021/06/14 10:53:28;;;;;;;1.90;1.80;;;25.10;71.70;;;;;;5175352;23;20486;-93
2021/06/14 11:04:50;;;;;;;1.70;1.40;;;25.10;71.70;;;;;;4977937;28;20438;-96
2021/06/14 11:07:17;;;;;;;1.73;1.63;;;25.10;71.80;;;;;;4978893;28;20512;-93
2021/06/14 11:09:46;;;;;;;1.63;1.53;;;25.10;71.80;;;;;;4979119;28;20442;-93
2021/06/14 11:12:25;;;;;;;1.80;1.70;;;25.10;71.80;;;;;;4979499;28;20476;-96
2021/06/14 11:14:52;;;;;;;1.60;1.50;;;25.10;71.80;;;;;;4978505;28;20529;-94
2021/06/14 11:17:22;;;;;;;1.60;1.50;;;25.10;71.80;;;;;;4978357;28;20484;-93
2021/06/14 11:19:53;;;;;;;1.80;1.70;;;25.00;71.70;;;;;;4977694;28;20438;-95
2021/06/14 11:22:20;;;;;;;1.60;1.50;;;25.10;71.80;;;;;;4977014;28;20810;-94
2021/06/14 11:24:48;;;;;;;1.87;1.77;;;25.10;71.80;;;;;;4977870;28;20868;-93
2021/06/14 11:27:16;;;;;;;1.77;1.67;;;25.10;71.80;;;;;;4978218;28;20508;-93
2021/06/14 11:29:49;;;;;;;1.60;1.50;;;25.10;71.80;;;;;;4978324;28;20473;-94
2021/06/14 11:32:19;;;;;;;1.70;1.60;;;25.10;71.90;;;;;;4978624;28;21012;-94
2021/06/14 11:34:49;;;;;;;1.80;1.70;;;25.10;71.90;;;;;;4976862;28;20455;-93
2021/06/14 11:41:30;;;;;;;1.73;1.60;;;25.10;71.90;;;;;;4976473;28;20422;-96
2021/06/14 11:44:25;;;;;;;1.50;1.40;;;25.10;71.90;;;;;;4977591;28;20474;-94
2021/06/14 11:46:53;;;;;;;1.43;1.33;;;25.10;71.90;;;;;;4962253;28;20550;-93
2021/06/14 11:49:22;;;;;;;1.80;1.70;;;25.10;72.00;;;;;;4977071;28;20442;-95
2021/06/14 11:51:49;;;;;;;1.47;1.37;;;25.10;71.90;;;;;;4979244;28;20447;-93
2021/06/14 11:54:19;;;;;;;1.60;1.50;;;25.10;72.00;;;;;;4979170;28;20443;-94
2021/06/14 11:56:58;;;;;;;1.57;1.47;;;25.10;71.90;;;;;;4980047;28;20452;-94
2021/06/14 11:59:31;;;;;;;1.70;1.60;;;25.10;71.90;;;;;;4980738;28;20486;-93
2021/06/14 12:01:58;;;;;;;1.63;1.53;;;25.10;71.90;;;;;;4981624;28;20460;-94
2021/06/14 12:04:25;;;;;;;1.60;1.50;;;25.10;71.90;;;;;;4980892;28;21025;-93
2021/06/14 12:06:52;;;;;;;1.50;1.40;;;25.10;71.90;;;;;;4980931;28;20916;-93
2021/06/14 12:09:25;;;;;;;1.70;1.60;;;25.10;71.90;;;;;;4964632;28;20463;-95
2021/06/14 12:11:59;;;;;;;1.80;1.70;;;25.20;72.00;;;;;;4980411;28;20455;-95
2021/06/14 12:14:26;;;;;;;1.40;1.30;;;25.10;71.90;;;;;;4980194;28;20527;-94
2021/06/14 12:16:59;;;;;;;2.00;1.90;;;25.10;71.90;;;;;;4979190;28;20443;-94
2021/06/14 12:19:28;;;;;;;1.53;1.43;;;25.20;71.90;;;;;;4979672;28;20574;-93
2021/06/14 12:21:57;;;;;;;2.00;1.90;;;25.10;71.90;;;;;;4980018;28;20926;-94
2021/06/14 12:24:26;;;;;;;1.60;1.50;;;25.10;71.90;;;;;;4979324;28;20451;-94
2021/06/14 12:27:02;;;;;;;1.50;1.40;;;25.10;71.90;;;;;;4980342;28;20451;-95
2021/06/14 12:29:29;;;;;;;1.60;1.50;;;25.20;71.90;;;;;;4979872;28;20455;-94
2021/06/14 12:32:02;;;;;;;1.97;1.47;;;25.10;71.90;;;;;;4979129;28;20541;-93
2021/06/14 12:34:30;;;;;;;1.53;1.43;;;25.20;72.00;;;;;;4980129;28;20454;-96
2021/06/14 12:37:03;;;;;;;1.53;1.43;;;25.20;72.00;;;;;;4979294;28;20968;-93
2021/06/14 12:39:30;;;;;;;1.80;1.70;;;25.20;71.90;;;;;;4979475;28;20486;-96
2021/06/14 12:41:58;;;;;;;1.60;1.50;;;25.20;71.90;;;;;;4979128;28;20479;-93
2021/06/14 12:44:27;;;;;;;1.73;1.63;;;25.20;71.90;;;;;;4979616;28;20921;-96
2021/06/14 12:46:54;;;;;;;1.73;1.63;;;25.20;71.90;;;;;;4979826;28;20941;-96
2021/06/14 12:49:23;;;;;;;1.80;1.70;;;25.20;72.00;;;;;;4978910;28;20480;-96
2021/06/14 12:51:50;;;;;;;1.67;1.57;;;25.20;71.90;;;;;;4979730;28;20461;-96
2021/06/14 12:54:17;;;;;;;1.67;1.57;;;25.20;71.90;;;;;;4979867;28;20534;-96
2021/06/14 12:56:51;;;;;;;1.40;1.30;;;25.20;71.90;;;;;;4979242;28;20455;-96
2021/06/14 12:59:18;;;;;;;1.90;1.70;;;25.20;72.00;;;;;;4979147;28;20489;-94
2021/06/14 13:01:47;;;;;;;1.70;1.50;;;25.20;71.90;;;;;;4979238;28;20476;-94
2021/06/14 13:04:14;;;;;;;1.40;1.30;;;25.20;72.00;;;;;;4979218;28;20522;-94
2021/06/14 13:06:42;;;;;;;1.60;1.50;;;25.20;72.00;;;;;;4980184;28;20863;-94
2021/06/14 13:09:09;;;;;;;1.80;1.40;;;25.20;72.00;;;;;;4981264;28;20463;-94
2021/06/14 13:11:45;;;;;;;1.60;1.50;;;25.20;71.90;;;;;;4978443;28;20459;-96